Time;durP1;ratioP1;P1;durP2;ratioP2;P2;SDS_P1;SDS_P2;PMS_P1;PMS_P2;Temp;Humidity;BMP_temperature;BMP_pressure;BME280_temperature;BME280_humidity;BME280_pressure;Samples;Min_cycle;Max_cycle;Signal;HPM_P1;HPM_P2
2022/03/10 00:02:13;;;;;;;16.67;9.30;;;5.20;99.90;;;;;;4995869;28;20351;-77
2022/03/10 00:04:39;;;;;;;16.20;9.65;;;5.10;99.90;;;;;;5011154;28;20073;-79
2022/03/10 00:07:05;;;;;;;16.98;9.98;;;5.00;99.90;;;;;;4995909;28;20080;-77
2022/03/10 00:10:05;;;;;;;15.90;9.38;;;5.00;99.90;;;;;;5011087;28;20038;-78
2022/03/10 00:12:31;;;;;;;17.08;9.93;;;5.00;99.90;;;;;;4995942;28;20124;-79
2022/03/10 00:14:57;;;;;;;15.73;10.20;;;4.90;99.90;;;;;;5004925;28;20501;-78
2022/03/10 00:17:25;;;;;;;18.67;10.17;;;4.80;99.90;;;;;;5007187;28;20046;-81
2022/03/10 00:19:51;;;;;;;19.02;10.20;;;4.80;99.90;;;;;;5013999;28;20076;-77
2022/03/10 00:22:17;;;;;;;14.63;9.57;;;4.80;99.90;;;;;;5028398;28;20042;-78
2022/03/10 00:24:42;;;;;;;18.80;10.00;;;4.80;99.90;;;;;;4997329;28;20096;-78
2022/03/10 00:27:08;;;;;;;16.37;9.80;;;4.80;99.90;;;;;;5004600;28;20120;-78
2022/03/10 00:29:34;;;;;;;25.10;10.10;;;4.80;99.90;;;;;;4987316;28;20079;-78
2022/03/10 00:32:01;;;;;;;16.83;9.87;;;4.70;99.90;;;;;;5003310;28;20309;-78
2022/03/10 00:34:27;;;;;;;14.90;9.60;;;4.70;99.90;;;;;;5009596;28;20295;-77
2022/03/10 00:36:53;;;;;;;17.98;10.88;;;4.60;99.90;;;;;;5007641;28;20041;-77
2022/03/10 00:39:18;;;;;;;16.03;10.00;;;4.80;99.90;;;;;;4989977;28;20052;-77
2022/03/10 00:41:44;;;;;;;14.90;10.13;;;5.10;99.90;;;;;;5022897;28;20065;-77
2022/03/10 00:44:09;;;;;;;16.60;10.33;;;4.60;99.90;;;;;;5009881;28;20049;-77
2022/03/10 00:46:35;;;;;;;17.17;10.40;;;4.60;99.90;;;;;;5012810;28;20099;-77
2022/03/10 00:49:01;;;;;;;17.40;10.30;;;4.60;99.90;;;;;;5009835;28;20117;-78
2022/03/10 00:51:27;;;;;;;15.67;10.10;;;4.60;99.90;;;;;;5011139;28;20300;-78
2022/03/10 00:53:52;;;;;;;19.50;11.20;;;5.20;99.90;;;;;;4999289;28;20332;-77
2022/03/10 00:56:18;;;;;;;14.73;10.17;;;4.50;99.90;;;;;;4992640;28;20277;-78
2022/03/10 00:58:44;;;;;;;18.80;10.87;;;4.70;99.90;;;;;;5014295;28;20150;-78
2022/03/10 01:01:42;;;;;;;16.27;10.73;;;4.50;99.90;;;;;;5016642;28;20329;-77
2022/03/10 01:04:07;;;;;;;;;;;4.60;99.90;;;;;;5002913;28;20547;-79
2022/03/10 01:06:33;;;;;;;16.45;10.10;;;4.50;99.90;;;;;;5012826;28;20003;-79
2022/03/10 01:08:59;;;;;;;17.97;10.60;;;4.50;99.90;;;;;;4968779;28;20541;-79
2022/03/10 01:11:24;;;;;;;14.27;10.10;;;4.40;99.90;;;;;;4993631;28;20044;-79
2022/03/10 01:13:50;;;;;;;17.13;10.30;;;5.20;99.90;;;;;;5012222;28;20048;-79
2022/03/10 01:16:16;;;;;;;16.17;10.67;;;4.40;99.90;;;;;;4996735;28;20524;-79
2022/03/10 01:18:41;;;;;;;17.25;10.80;;;4.20;99.90;;;;;;5007766;28;20041;-79
2022/03/10 01:21:07;;;;;;;17.07;10.43;;;4.20;99.90;;;;;;5007904;28;20036;-79
2022/03/10 01:23:33;;;;;;;15.27;9.67;;;4.20;99.90;;;;;;4988928;28;20045;-79
2022/03/10 01:25:58;;;;;;;17.10;10.50;;;4.20;99.90;;;;;;5016771;28;20367;-79
2022/03/10 01:28:24;;;;;;;17.40;10.60;;;4.20;99.90;;;;;;5015034;28;20289;-79
2022/03/10 01:30:50;;;;;;;18.07;10.60;;;4.20;99.90;;;;;;5012288;28;20073;-78
2022/03/10 01:33:16;;;;;;;16.63;10.27;;;4.00;99.90;;;;;;4993679;28;20391;-78
2022/03/10 01:35:41;;;;;;;16.95;10.48;;;4.10;99.90;;;;;;5011901;28;20041;-79
2022/03/10 01:38:07;;;;;;;16.47;9.83;;;4.00;99.90;;;;;;4987858;28;20075;-79
2022/03/10 01:40:32;;;;;;;15.60;10.23;;;4.00;99.90;;;;;;4990235;28;20048;-79
2022/03/10 01:42:58;;;;;;;16.57;10.37;;;4.10;99.90;;;;;;5032900;28;20048;-79
2022/03/10 01:45:24;;;;;;;15.27;10.57;;;4.50;99.90;;;;;;4998097;28;20307;-79
2022/03/10 01:47:49;;;;;;;19.90;10.93;;;4.00;99.90;;;;;;4997956;28;20103;-79
2022/03/10 01:50:15;;;;;;;18.37;10.83;;;4.00;99.90;;;;;;5014669;28;20074;-79
2022/03/10 01:52:42;;;;;;;15.82;10.73;;;3.80;99.90;;;;;;5010268;28;20116;-77
2022/03/10 01:55:09;;;;;;;16.05;10.40;;;3.80;99.90;;;;;;5002571;28;20465;-78
2022/03/10 01:57:36;;;;;;;17.75;10.63;;;4.60;99.90;;;;;;5014292;28;20048;-78
2022/03/10 02:00:02;;;;;;;;;;;3.60;99.90;;;;;;5015361;28;20449;-78
2022/03/10 02:02:28;;;;;;;16.58;10.38;;;3.60;99.90;;;;;;5009385;28;19987;-78
2022/03/10 02:04:54;;;;;;;16.83;10.50;;;3.60;99.90;;;;;;5009117;28;20045;-79
2022/03/10 02:10:19;;;;;;;17.10;10.52;;;3.60;99.90;;;;;;5012235;28;20037;-78
2022/03/10 02:12:50;;;;;;;20.30;11.18;;;3.60;99.90;;;;;;5015348;28;20415;-79
2022/03/10 02:18:03;;;;;;;16.83;11.30;;;3.60;99.90;;;;;;5011672;28;20443;-78
2022/03/10 02:20:30;;;;;;;17.75;10.82;;;3.60;99.90;;;;;;4993570;28;20057;-78
2022/03/10 02:22:56;;;;;;;16.33;10.93;;;3.90;99.90;;;;;;4999201;28;20041;-79
2022/03/10 02:25:23;;;;;;;16.55;11.23;;;3.50;99.90;;;;;;5016326;28;20045;-79
2022/03/10 02:27:51;;;;;;;18.17;11.75;;;3.50;99.90;;;;;;4989971;28;20108;-79
2022/03/10 02:30:17;;;;;;;20.50;11.38;;;4.10;99.90;;;;;;5012679;28;20066;-79
2022/03/10 02:32:43;;;;;;;;;;;4.10;99.90;;;;;;5011114;28;20049;-78
2022/03/10 02:35:09;;;;;;;19.65;11.73;;;4.00;99.90;;;;;;5005148;28;19917;-77
2022/03/10 02:37:34;;;;;;;19.63;11.45;;;3.30;99.90;;;;;;4990101;28;20038;-79
2022/03/10 02:40:00;;;;;;;18.07;11.60;;;3.80;99.90;;;;;;5015570;28;20072;-78
2022/03/10 02:42:26;;;;;;;18.57;10.93;;;3.20;99.90;;;;;;4998857;28;20300;-78
2022/03/10 02:44:52;;;;;;;;;;;3.20;99.90;;;;;;5006748;28;20042;-79
2022/03/10 02:47:18;;;;;;;17.63;10.82;;;3.20;99.90;;;;;;5012709;28;19923;-79
2022/03/10 02:49:44;;;;;;;17.65;11.55;;;3.10;99.90;;;;;;5013018;28;20538;-79
2022/03/10 02:52:10;;;;;;;18.15;11.70;;;3.10;99.90;;;;;;4997050;28;20079;-79
2022/03/10 02:54:36;;;;;;;17.38;11.57;;;3.10;99.90;;;;;;5010545;28;20052;-79
2022/03/10 02:57:02;;;;;;;18.15;12.15;;;3.00;99.90;;;;;;5007803;28;20034;-79
2022/03/10 02:59:27;;;;;;;17.80;11.07;;;3.00;99.90;;;;;;4995848;28;20064;-79
2022/03/10 03:01:55;;;;;;;17.10;11.30;;;3.00;99.90;;;;;;5015064;28;20041;-79
2022/03/10 03:04:25;;;;;;;19.23;10.90;;;3.00;99.90;;;;;;4980014;28;20519;-79
2022/03/10 03:06:51;;;;;;;17.10;11.38;;;3.00;99.90;;;;;;5004394;28;20042;-77
2022/03/10 03:09:17;;;;;;;18.65;11.73;;;3.30;99.90;;;;;;5015693;28;20045;-79
2022/03/10 03:11:43;;;;;;;17.55;11.48;;;3.00;99.90;;;;;;5015048;28;20531;-78
2022/03/10 03:14:09;;;;;;;19.05;11.32;;;3.00;99.90;;;;;;4998929;28;20380;-79
2022/03/10 03:16:34;;;;;;;20.77;11.20;;;3.00;99.90;;;;;;5011854;28;20037;-79
2022/03/10 03:19:00;;;;;;;17.63;11.10;;;3.20;99.90;;;;;;4995529;28;20038;-78
2022/03/10 03:21:26;;;;;;;18.93;11.63;;;3.00;99.90;;;;;;5015194;28;20145;-78
2022/03/10 03:23:51;;;;;;;19.30;11.52;;;3.00;99.90;;;;;;5006303;28;20277;-78
2022/03/10 03:26:17;;;;;;;19.43;11.70;;;3.30;99.90;;;;;;5014527;28;20073;-78
2022/03/10 03:28:44;;;;;;;21.10;12.10;;;3.00;99.90;;;;;;4998638;28;20106;-78
2022/03/10 03:31:11;;;;;;;21.27;12.20;;;3.30;99.90;;;;;;5008703;28;20045;-78
2022/03/10 03:33:38;;;;;;;18.95;11.60;;;3.20;99.90;;;;;;4985115;28;20041;-78
2022/03/10 03:36:04;;;;;;;22.42;12.50;;;3.00;99.90;;;;;;5012206;28;20040;-78
2022/03/10 03:38:29;;;;;;;16.88;11.10;;;3.00;99.90;;;;;;4998631;28;20040;-78
2022/03/10 03:40:55;;;;;;;17.77;11.27;;;3.00;99.90;;;;;;4989555;28;20461;-79
2022/03/10 03:43:21;;;;;;;17.80;10.97;;;3.00;99.90;;;;;;5008617;28;20284;-78
2022/03/10 03:45:47;;;;;;;16.07;11.17;;;3.00;99.90;;;;;;5005250;28;20100;-78
2022/03/10 03:48:12;;;;;;;18.40;11.33;;;3.00;99.90;;;;;;4992026;28;20377;-78
2022/03/10 03:50:38;;;;;;;18.77;11.20;;;3.00;99.90;;;;;;5027423;28;20552;-78
2022/03/10 03:53:04;;;;;;;18.65;11.30;;;3.20;99.90;;;;;;5009713;28;20034;-79
2022/03/10 03:55:29;;;;;;;20.77;12.17;;;3.00;99.90;;;;;;4993147;28;20092;-78
2022/03/10 03:57:55;;;;;;;19.48;12.30;;;3.00;99.90;;;;;;5010956;28;20062;-78
2022/03/10 04:00:21;;;;;;;18.58;10.82;;;2.90;99.90;;;;;;5025997;28;20037;-78
2022/03/10 04:02:46;;;;;;;23.13;11.43;;;2.80;99.90;;;;;;5014426;28;20056;-78
2022/03/10 04:05:13;;;;;;;19.30;11.57;;;2.70;99.90;;;;;;5011731;28;20116;-79
2022/03/10 04:07:39;;;;;;;18.55;11.82;;;2.70;99.90;;;;;;5008838;28;20137;-78
2022/03/10 04:10:07;;;;;;;21.45;11.80;;;2.70;99.90;;;;;;4993839;28;20038;-78
2022/03/10 04:12:34;;;;;;;17.88;11.30;;;2.60;99.90;;;;;;5004477;28;20088;-78
2022/03/10 04:15:00;;;;;;;17.17;11.40;;;2.60;99.90;;;;;;5002752;28;20382;-78
2022/03/10 04:17:26;;;;;;;17.02;11.02;;;2.70;99.90;;;;;;5009636;28;20038;-78
2022/03/10 04:19:52;;;;;;;19.77;11.80;;;2.60;99.90;;;;;;5002115;28;20474;-78
2022/03/10 04:22:18;;;;;;;18.67;11.32;;;2.60;99.90;;;;;;4971781;28;20143;-78
2022/03/10 04:24:43;;;;;;;18.13;10.32;;;2.60;99.90;;;;;;4991283;28;20049;-78
2022/03/10 04:27:09;;;;;;;16.45;10.75;;;2.60;99.90;;;;;;5011579;28;20053;-78
2022/03/10 04:29:35;;;;;;;19.20;11.68;;;2.60;99.90;;;;;;4982824;28;20143;-78
2022/03/10 04:32:01;;;;;;;20.50;11.20;;;2.50;99.90;;;;;;5013647;28;20124;-78
2022/03/10 04:34:26;;;;;;;17.70;11.07;;;2.50;99.90;;;;;;4999273;28;20052;-78
2022/03/10 04:36:52;;;;;;;17.07;11.33;;;2.50;99.90;;;;;;5016276;28;20287;-78
2022/03/10 04:39:18;;;;;;;19.10;11.53;;;3.50;99.90;;;;;;5011798;28;20368;-78
2022/03/10 04:41:44;;;;;;;18.77;11.60;;;3.10;99.90;;;;;;5006353;28;20045;-79
2022/03/10 04:44:10;;;;;;;17.40;11.50;;;2.50;99.90;;;;;;5008178;28;20038;-79
2022/03/10 04:46:37;;;;;;;16.63;10.82;;;2.50;99.90;;;;;;4992914;28;20423;-79
2022/03/10 04:49:03;;;;;;;19.33;11.25;;;2.50;99.90;;;;;;5017713;28;20106;-78
2022/03/10 04:51:29;;;;;;;15.82;10.55;;;2.50;99.90;;;;;;4989901;28;20037;-78
2022/03/10 04:53:54;;;;;;;21.17;11.30;;;2.60;99.90;;;;;;5006832;28;20408;-78
2022/03/10 04:56:20;;;;;;;17.70;10.77;;;3.90;99.90;;;;;;5027447;28;20037;-78
2022/03/10 04:58:46;;;;;;;16.10;10.80;;;3.20;99.90;;;;;;5003562;28;20293;-78
2022/03/10 05:01:12;;;;;;;16.60;10.50;;;2.60;99.90;;;;;;5017067;28;20071;-78
2022/03/10 05:03:38;;;;;;;19.73;10.55;;;2.70;99.90;;;;;;5018724;28;20033;-78
2022/03/10 05:06:04;;;;;;;15.93;10.32;;;2.70;99.90;;;;;;4982219;28;20477;-78
2022/03/10 05:08:30;;;;;;;16.85;10.13;;;2.70;99.90;;;;;;5013375;28;20037;-78
2022/03/10 05:10:57;;;;;;;18.40;10.60;;;2.70;99.90;;;;;;5012986;28;20034;-78
2022/03/10 05:13:23;;;;;;;17.85;10.77;;;3.70;99.90;;;;;;5016478;28;20045;-79
2022/03/10 05:15:49;;;;;;;15.75;10.50;;;2.70;99.90;;;;;;5015783;28;20044;-80
2022/03/10 05:18:14;;;;;;;18.25;11.00;;;2.70;99.90;;;;;;5015825;28;20036;-79
2022/03/10 05:20:40;;;;;;;21.70;10.47;;;2.70;99.90;;;;;;5015990;28;20049;-79
2022/03/10 05:23:06;;;;;;;18.02;10.27;;;3.70;99.90;;;;;;5015767;28;20038;-80
2022/03/10 05:25:40;;;;;;;16.00;10.32;;;2.70;99.90;;;;;;5015633;28;20068;-81
2022/03/10 05:28:13;;;;;;;16.15;10.88;;;2.80;99.90;;;;;;5013300;28;20152;-80
2022/03/10 05:30:40;;;;;;;17.60;10.60;;;2.80;99.90;;;;;;5014745;28;20049;-80
2022/03/10 05:33:06;;;;;;;16.95;10.45;;;2.80;99.90;;;;;;5013467;28;20056;-79
2022/03/10 05:35:32;;;;;;;17.95;10.75;;;2.80;99.90;;;;;;5013219;28;20049;-78
2022/03/10 05:37:59;;;;;;;17.00;10.57;;;2.80;99.90;;;;;;5000750;28;20762;-79
2022/03/10 05:40:25;;;;;;;18.85;10.32;;;2.70;99.90;;;;;;5014832;28;20304;-78
2022/03/10 05:42:54;;;;;;;17.42;10.10;;;2.80;99.90;;;;;;5032302;28;20045;-77
2022/03/10 05:45:21;;;;;;;15.27;10.13;;;2.80;99.90;;;;;;5016821;28;20396;-75
2022/03/10 05:47:51;;;;;;;16.13;10.52;;;2.70;99.90;;;;;;5009181;28;20115;-75
2022/03/10 05:50:18;;;;;;;16.98;10.63;;;2.70;99.90;;;;;;5012322;28;20053;-74
2022/03/10 05:52:45;;;;;;;16.83;10.23;;;2.70;99.90;;;;;;5009971;28;20044;-75
2022/03/10 05:55:16;;;;;;;17.63;10.45;;;2.70;99.90;;;;;;5001731;28;20033;-74
2022/03/10 05:57:42;;;;;;;17.42;10.80;;;2.70;99.90;;;;;;5014877;28;20049;-74
2022/03/10 06:00:10;;;;;;;17.33;10.02;;;2.60;99.90;;;;;;5011068;28;20060;-74
2022/03/10 06:02:36;;;;;;;17.58;11.15;;;2.70;99.90;;;;;;5009689;28;20050;-74
2022/03/10 06:05:03;;;;;;;16.27;10.52;;;2.80;99.90;;;;;;5002780;28;20053;-74
2022/03/10 06:07:30;;;;;;;17.13;10.60;;;2.60;99.90;;;;;;4998208;28;20033;-74
2022/03/10 06:09:56;;;;;;;17.67;10.82;;;2.60;99.90;;;;;;5011268;28;20504;-75
2022/03/10 06:12:27;;;;;;;15.98;10.65;;;2.60;99.90;;;;;;4999598;28;20045;-75
2022/03/10 06:15:04;;;;;;;19.90;10.88;;;2.70;99.90;;;;;;5012811;28;20042;-74
2022/03/10 06:17:30;;;;;;;16.52;10.20;;;2.70;99.90;;;;;;4991349;28;20131;-74
2022/03/10 06:19:57;;;;;;;15.50;10.50;;;2.70;99.90;;;;;;5013174;28;20485;-75
2022/03/10 06:22:27;;;;;;;17.80;10.90;;;2.70;99.90;;;;;;5022888;28;20057;-75
2022/03/10 06:24:52;;;;;;;17.17;10.57;;;4.10;99.90;;;;;;5015620;28;20113;-75
2022/03/10 06:27:19;;;;;;;17.45;10.25;;;2.70;99.90;;;;;;4999445;28;20553;-74
2022/03/10 06:29:45;;;;;;;15.88;10.60;;;2.70;99.90;;;;;;5012271;28;20044;-75
2022/03/10 06:32:14;;;;;;;18.13;10.48;;;2.70;99.90;;;;;;5013059;28;20437;-74
2022/03/10 06:34:40;;;;;;;20.77;10.32;;;2.80;99.90;;;;;;5029209;28;20050;-75
2022/03/10 06:37:06;;;;;;;17.98;11.20;;;2.80;99.90;;;;;;5013380;28;20065;-75
2022/03/10 06:39:33;;;;;;;20.98;11.55;;;2.90;99.90;;;;;;5008378;28;20109;-75
2022/03/10 06:41:59;;;;;;;17.05;11.23;;;2.90;99.90;;;;;;5015452;28;20045;-75
2022/03/10 06:44:25;;;;;;;17.88;10.88;;;3.00;99.90;;;;;;5014674;28;20044;-75
2022/03/10 06:46:51;;;;;;;17.00;10.98;;;3.10;99.90;;;;;;4989639;28;20424;-75
2022/03/10 06:49:17;;;;;;;;;;;3.20;99.90;;;;;;5014609;28;20053;-75
2022/03/10 06:51:43;;;;;;;16.88;10.85;;;3.20;99.90;;;;;;5014537;28;19921;-75
2022/03/10 06:54:08;;;;;;;18.85;11.38;;;3.20;99.90;;;;;;4998504;28;20037;-74
2022/03/10 06:56:34;;;;;;;17.07;10.43;;;3.30;99.90;;;;;;5014685;28;20124;-74
2022/03/10 06:59:00;;;;;;;19.65;10.48;;;3.40;99.90;;;;;;5014528;28;20045;-74
2022/03/10 07:01:26;;;;;;;20.17;10.82;;;3.40;99.90;;;;;;5014376;28;20037;-74
2022/03/10 07:03:53;;;;;;;19.63;10.97;;;3.60;99.90;;;;;;5015628;28;20038;-74
2022/03/10 07:06:19;;;;;;;17.63;10.88;;;4.50;99.90;;;;;;4998647;28;20493;-74
2022/03/10 07:08:45;;;;;;;17.50;10.57;;;3.80;99.90;;;;;;5015390;28;20065;-75
2022/03/10 07:11:10;;;;;;;20.63;10.63;;;3.90;99.90;;;;;;4984005;28;20042;-74
2022/03/10 07:13:36;;;;;;;18.70;11.20;;;3.90;99.90;;;;;;4996821;28;20045;-75
2022/03/10 07:16:02;;;;;;;18.20;10.95;;;4.00;99.90;;;;;;4998543;28;20629;-74
2022/03/10 07:18:28;;;;;;;17.30;10.93;;;4.10;99.90;;;;;;5009871;28;20048;-74
2022/03/10 07:20:54;;;;;;;18.00;10.47;;;4.20;99.90;;;;;;5011863;28;20137;-75
2022/03/10 07:23:19;;;;;;;15.60;10.32;;;4.30;99.90;;;;;;5008984;28;20053;-75
2022/03/10 07:25:45;;;;;;;16.43;9.93;;;4.30;99.90;;;;;;5014957;28;20045;-75
2022/03/10 07:28:11;;;;;;;18.10;9.88;;;4.60;99.90;;;;;;5009843;28;20045;-75
2022/03/10 07:30:37;;;;;;;16.17;10.10;;;4.60;99.90;;;;;;4995434;28;20111;-75
2022/03/10 07:33:03;;;;;;;14.82;9.75;;;4.70;99.90;;;;;;4989907;28;20044;-75
2022/03/10 07:35:29;;;;;;;19.08;10.80;;;5.00;99.90;;;;;;5015214;28;20037;-75
2022/03/10 07:37:56;;;;;;;16.15;9.95;;;5.20;99.90;;;;;;4998525;28;20037;-75
2022/03/10 07:40:22;;;;;;;18.73;9.80;;;5.40;99.90;;;;;;4999509;28;20038;-75
2022/03/10 07:42:48;;;;;;;17.35;10.10;;;5.60;99.90;;;;;;5012397;28;20117;-75
2022/03/10 07:45:14;;;;;;;16.40;9.80;;;5.70;99.90;;;;;;5020251;28;20129;-75
2022/03/10 07:47:39;;;;;;;15.82;9.85;;;5.90;99.90;;;;;;5001197;28;20063;-76
2022/03/10 07:50:06;;;;;;;18.20;10.80;;;6.00;99.90;;;;;;5011522;28;20050;-74
2022/03/10 07:52:33;;;;;;;16.42;9.75;;;6.20;99.90;;;;;;4993504;28;20308;-74
2022/03/10 07:54:59;;;;;;;20.58;10.75;;;6.60;99.90;;;;;;5016213;28;20477;-75
2022/03/10 07:57:25;;;;;;;17.73;9.32;;;7.20;99.90;;;;;;5013809;28;20109;-75
2022/03/10 07:59:52;;;;;;;15.95;9.90;;;8.10;99.90;;;;;;5014104;28;20049;-75
2022/03/10 08:02:18;;;;;;;16.10;9.68;;;8.50;99.20;;;;;;5013698;28;20057;-75
2022/03/10 08:04:44;;;;;;;;;;;9.00;97.60;;;;;;5015672;28;20107;-75
2022/03/10 08:07:09;;;;;;;14.85;10.07;;;9.30;96.00;;;;;;5013442;28;19917;-75
2022/03/10 08:09:35;;;;;;;18.77;10.27;;;9.50;93.30;;;;;;5014588;28;20076;-75
2022/03/10 08:12:01;;;;;;;16.20;10.57;;;9.90;93.10;;;;;;5014214;28;20043;-75
2022/03/10 08:14:27;;;;;;;14.30;9.63;;;10.20;92.50;;;;;;5013545;28;20037;-75
2022/03/10 08:16:53;;;;;;;14.27;9.90;;;10.20;92.30;;;;;;5016180;28;20127;-75
2022/03/10 08:19:19;;;;;;;16.80;10.47;;;10.60;90.70;;;;;;5013992;28;20038;-75
2022/03/10 08:21:44;;;;;;;18.60;11.07;;;10.60;89.60;;;;;;4998509;28;20624;-76
2022/03/10 08:24:10;;;;;;;15.40;10.00;;;10.80;88.20;;;;;;5014613;28;20120;-75
2022/03/10 08:26:36;;;;;;;15.73;9.80;;;11.10;88.70;;;;;;5016152;28;20072;-75
2022/03/10 08:29:02;;;;;;;15.07;10.25;;;11.30;86.10;;;;;;5016081;28;20057;-75
2022/03/10 08:31:28;;;;;;;16.15;10.18;;;11.40;85.70;;;;;;5015402;28;20045;-76
2022/03/10 08:33:54;;;;;;;13.00;9.45;;;11.60;84.50;;;;;;5013658;28;20036;-76
2022/03/10 08:36:19;;;;;;;13.68;9.13;;;12.10;83.90;;;;;;5021050;28;20074;-76
2022/03/10 08:38:45;;;;;;;16.63;10.10;;;12.40;82.90;;;;;;5015479;28;20124;-75
2022/03/10 08:41:11;;;;;;;13.70;9.88;;;12.40;80.30;;;;;;4997150;28;20103;-75
2022/03/10 08:43:37;;;;;;;15.95;9.93;;;12.40;80.80;;;;;;5013830;28;20045;-75
2022/03/10 08:46:04;;;;;;;14.32;9.55;;;12.70;79.50;;;;;;5013806;28;20512;-75
2022/03/10 08:48:34;;;;;;;15.02;9.73;;;13.30;77.60;;;;;;5001904;28;20051;-76
2022/03/10 08:51:04;;;;;;;15.40;10.15;;;13.50;77.30;;;;;;5014247;28;20064;-75
2022/03/10 08:53:30;;;;;;;13.20;10.10;;;13.20;77.20;;;;;;5015658;28;20046;-76
2022/03/10 08:55:56;;;;;;;;;;;13.90;77.50;;;;;;5014648;28;20033;-76
2022/03/10 08:58:22;;;;;;;15.75;9.88;;;13.70;75.50;;;;;;5012700;28;19936;-75
2022/03/10 09:00:48;;;;;;;13.27;10.23;;;13.90;75.20;;;;;;5013131;28;20038;-75
2022/03/10 09:03:13;;;;;;;16.90;10.35;;;14.10;74.40;;;;;;5010817;28;20040;-75
2022/03/10 09:05:40;;;;;;;21.77;10.35;;;14.50;74.30;;;;;;5014371;28;20048;-75
2022/03/10 09:08:06;;;;;;;13.85;9.98;;;15.00;74.00;;;;;;5012956;28;20072;-75
2022/03/10 09:10:32;;;;;;;13.35;9.75;;;14.90;72.50;;;;;;5012860;28;20076;-76
2022/03/10 09:12:59;;;;;;;14.98;10.10;;;15.60;71.60;;;;;;5013101;28;20033;-75
2022/03/10 09:15:26;;;;;;;16.90;10.68;;;15.80;71.10;;;;;;5012635;28;20087;-75
2022/03/10 09:17:53;;;;;;;15.13;9.85;;;15.30;70.80;;;;;;4996423;28;20052;-75
2022/03/10 09:20:19;;;;;;;13.02;9.75;;;15.60;70.80;;;;;;5015493;28;20102;-75
2022/03/10 09:22:46;;;;;;;15.05;10.48;;;15.50;70.40;;;;;;5014867;28;20128;-75
2022/03/10 09:25:12;;;;;;;15.50;10.48;;;16.00;70.50;;;;;;4996742;28;20045;-76
2022/03/10 09:27:39;;;;;;;14.43;10.13;;;15.60;70.00;;;;;;4997570;28;20057;-75
2022/03/10 09:30:10;;;;;;;13.25;9.82;;;16.10;70.00;;;;;;5015164;28;20548;-76
2022/03/10 09:32:37;;;;;;;14.82;9.95;;;16.30;69.20;;;;;;5017909;28;20053;-76
2022/03/10 09:35:04;;;;;;;14.85;10.65;;;16.70;69.30;;;;;;5016054;28;20496;-76
2022/03/10 09:37:30;;;;;;;14.35;10.50;;;16.60;67.90;;;;;;5015306;28;20134;-75
2022/03/10 09:39:55;;;;;;;14.10;9.75;;;16.30;68.30;;;;;;5012314;28;20104;-75
2022/03/10 09:42:24;;;;;;;14.00;9.93;;;16.80;67.50;;;;;;5011039;28;20630;-75
2022/03/10 09:44:50;;;;;;;14.18;9.82;;;17.20;67.60;;;;;;5017452;28;20056;-76
2022/03/10 09:47:16;;;;;;;13.35;9.90;;;17.40;67.60;;;;;;5019775;28;20468;-76
2022/03/10 09:49:42;;;;;;;14.45;9.75;;;16.90;65.90;;;;;;5002607;28;20033;-76
2022/03/10 09:52:11;;;;;;;14.30;9.57;;;17.20;66.10;;;;;;5018835;28;20047;-75
2022/03/10 09:54:37;;;;;;;13.13;9.75;;;18.10;66.20;;;;;;5012423;28;20069;-76
2022/03/10 09:57:03;;;;;;;;;;;17.90;65.50;;;;;;5019563;28;20238;-75
2022/03/10 09:59:30;;;;;;;15.85;10.73;;;18.40;64.40;;;;;;5016267;28;20375;-76
2022/03/10 10:01:56;;;;;;;14.18;9.93;;;18.10;63.50;;;;;;4989901;28;20069;-75
2022/03/10 10:04:23;;;;;;;15.35;9.98;;;18.20;63.50;;;;;;5000189;28;20087;-76
2022/03/10 10:07:06;;;;;;;15.88;9.95;;;18.20;64.00;;;;;;5009544;28;20527;-76
2022/03/10 10:09:39;;;;;;;13.68;10.02;;;18.20;63.20;;;;;;5016036;28;20432;-76
2022/03/10 10:12:06;;;;;;;16.10;10.20;;;19.00;63.60;;;;;;4993988;28;20070;-76
2022/03/10 10:15:08;;;;;;;13.88;10.32;;;18.60;62.60;;;;;;5016007;28;20034;-77
2022/03/10 10:17:34;;;;;;;14.20;9.65;;;18.60;61.50;;;;;;5002924;28;20053;-76
2022/03/10 10:20:01;;;;;;;13.02;9.75;;;18.50;62.50;;;;;;4999886;28;20041;-75
2022/03/10 10:22:28;;;;;;;12.00;9.55;;;19.10;63.20;;;;;;4996868;28;20045;-76
2022/03/10 10:24:59;;;;;;;12.65;9.40;;;19.30;60.60;;;;;;5015590;28;20064;-77
2022/03/10 10:27:33;;;;;;;13.98;9.63;;;20.30;60.70;;;;;;5015540;28;20125;-76
2022/03/10 10:30:01;;;;;;;14.55;10.18;;;20.20;60.40;;;;;;4999422;28;20041;-76
2022/03/10 10:32:31;;;;;;;16.50;10.77;;;20.80;60.60;;;;;;5014935;28;20045;-76
2022/03/10 10:35:01;;;;;;;16.40;10.48;;;21.30;57.30;;;;;;5015980;28;20033;-77
2022/03/10 10:37:28;;;;;;;14.07;10.43;;;21.30;57.70;;;;;;5015596;28;20083;-77
2022/03/10 10:39:55;;;;;;;;;;;21.10;58.50;;;;;;5016414;28;20049;-77
2022/03/10 10:42:35;;;;;;;12.93;9.88;;;21.40;57.90;;;;;;5015305;28;19917;-76
2022/03/10 10:45:21;;;;;;;12.65;9.68;;;21.90;57.90;;;;;;5013313;28;20041;-76
2022/03/10 10:48:10;;;;;;;13.05;9.50;;;21.80;57.20;;;;;;5000793;28;20092;-76
2022/03/10 10:50:41;;;;;;;13.68;10.20;;;20.70;57.40;;;;;;5015595;28;20120;-76
2022/03/10 10:53:31;;;;;;;16.65;10.65;;;21.10;56.90;;;;;;5014323;28;20041;-77
2022/03/10 10:55:57;;;;;;;13.02;10.25;;;21.80;55.70;;;;;;5015481;28;20064;-75
2022/03/10 10:58:25;;;;;;;14.13;10.23;;;21.70;56.90;;;;;;4996306;28;20053;-76
2022/03/10 11:00:51;;;;;;;14.32;10.52;;;21.30;56.40;;;;;;5015328;28;20042;-76
2022/03/10 11:03:21;;;;;;;;;;;22.00;56.30;;;;;;4999848;28;20106;-76
2022/03/10 11:05:48;;;;;;;13.88;10.52;;;22.40;55.10;;;;;;5016909;28;19924;-76
2022/03/10 11:08:16;;;;;;;14.68;10.20;;;22.10;54.50;;;;;;4998963;28;20045;-76
2022/03/10 11:10:42;;;;;;;14.45;10.73;;;22.30;54.20;;;;;;5007819;28;20037;-76
2022/03/10 11:13:07;;;;;;;;;;;22.80;53.20;;;;;;5001125;28;20042;-76
2022/03/10 11:15:33;;;;;;;14.95;10.85;;;23.30;52.50;;;;;;5000801;28;20272;-76
2022/03/10 11:18:00;;;;;;;;;;;23.00;53.50;;;;;;4996923;28;20041;-76
2022/03/10 11:20:28;;;;;;;15.15;10.48;;;23.10;52.00;;;;;;5032392;28;19917;-76
2022/03/10 11:23:08;;;;;;;16.45;11.32;;;22.70;52.30;;;;;;5007961;28;20493;-76
2022/03/10 11:25:44;;;;;;;14.20;10.90;;;23.00;52.20;;;;;;5007806;28;20494;-76
2022/03/10 11:28:13;;;;;;;15.52;11.18;;;23.20;52.90;;;;;;4989071;28;20038;-76
2022/03/10 11:30:39;;;;;;;14.65;11.25;;;23.50;51.50;;;;;;5004936;28;20076;-76
2022/03/10 11:33:13;;;;;;;14.73;10.52;;;24.20;51.30;;;;;;4986409;28;20042;-77
2022/03/10 11:35:42;;;;;;;15.27;10.85;;;24.20;51.30;;;;;;5007395;28;20048;-77
2022/03/10 11:38:09;;;;;;;15.10;10.73;;;24.40;51.50;;;;;;5009783;28;20048;-76
2022/03/10 11:41:00;;;;;;;16.75;11.02;;;24.20;50.60;;;;;;4993563;28;20539;-76
2022/03/10 11:43:25;;;;;;;15.25;10.60;;;23.80;51.00;;;;;;5002679;28;20061;-76
2022/03/10 11:45:51;;;;;;;;;;;23.50;50.30;;;;;;5005200;28;20034;-77
2022/03/10 11:48:33;;;;;;;15.07;10.98;;;23.40;50.50;;;;;;4988734;28;19974;-77
2022/03/10 11:51:07;;;;;;;14.43;10.52;;;23.50;50.90;;;;;;4984797;28;20037;-77
2022/03/10 11:53:54;;;;;;;16.67;11.27;;;24.00;50.20;;;;;;5006790;28;20042;-76
2022/03/10 11:56:52;;;;;;;19.38;11.05;;;23.70;50.20;;;;;;5011674;28;20042;-77
2022/03/10 11:59:24;;;;;;;16.00;10.95;;;23.90;49.30;;;;;;4994978;28;20056;-77
2022/03/10 12:01:51;;;;;;;14.50;11.05;;;23.70;50.30;;;;;;5000293;28;20559;-77
2022/03/10 12:04:18;;;;;;;15.55;11.38;;;24.20;49.80;;;;;;5004722;28;20195;-76
2022/03/10 12:06:58;;;;;;;16.02;10.52;;;24.20;49.40;;;;;;5009281;28;20041;-76
2022/03/10 12:09:31;;;;;;;15.65;11.77;;;23.60;49.80;;;;;;4997786;28;20216;-76
2022/03/10 12:12:12;;;;;;;16.02;11.68;;;23.90;49.60;;;;;;5009226;28;20178;-77
2022/03/10 12:14:38;;;;;;;17.27;11.80;;;23.60;49.70;;;;;;5006504;28;20137;-77
2022/03/10 12:17:03;;;;;;;;;;;23.80;49.50;;;;;;4993513;28;20033;-77
2022/03/10 12:20:07;;;;;;;14.73;11.30;;;23.40;49.30;;;;;;4997291;28;19921;-77
2022/03/10 12:22:35;;;;;;;18.20;12.15;;;23.90;48.80;;;;;;5013929;28;20037;-77
2022/03/10 12:25:21;;;;;;;17.25;11.55;;;24.30;48.10;;;;;;4988243;28;20505;-77
2022/03/10 12:27:52;;;;;;;14.88;11.02;;;24.60;48.00;;;;;;5004024;28;20050;-77
2022/03/10 12:30:25;;;;;;;16.08;11.38;;;24.70;48.40;;;;;;5009065;28;20053;-76
2022/03/10 12:32:53;;;;;;;16.27;11.35;;;24.70;48.20;;;;;;4999543;28;20116;-77
2022/03/10 12:35:38;;;;;;;16.83;11.23;;;24.30;47.30;;;;;;5004467;28;20042;-76
2022/03/10 12:38:05;;;;;;;16.13;11.55;;;24.20;47.40;;;;;;4997057;28;20033;-76
2022/03/10 12:40:33;;;;;;;16.63;10.85;;;24.50;47.00;;;;;;5008399;28;20107;-76
2022/03/10 12:43:07;;;;;;;16.52;10.48;;;24.50;47.60;;;;;;5008682;28;20116;-77
2022/03/10 12:45:33;;;;;;;16.08;11.05;;;24.50;47.60;;;;;;5004023;28;20053;-77
2022/03/10 12:47:58;;;;;;;;;;;24.10;47.80;;;;;;5006867;28;20394;-77
2022/03/10 12:50:24;;;;;;;17.75;11.30;;;24.50;47.40;;;;;;5002009;28;19961;-76